sensor_id;sensor_type;location;lat;lon;timestamp;pressure;altitude;pressure_sealevel;temperature;humidity
63321;BME280;49449;48.800;9.534;2023-04-07T00:02:21;98616.97;;;9.15;36.01
63321;BME280;49449;48.800;9.534;2023-04-07T00:04:50;98605.47;;;9.09;35.87
63321;BME280;49449;48.800;9.534;2023-04-07T00:07:17;98613.78;;;9.06;36.82
63321;BME280;49449;48.800;9.534;2023-04-07T00:09:45;98604.09;;;9.00;36.71
63321;BME280;49449;48.800;9.534;2023-04-07T00:12:13;98604.25;;;9.05;37.18
63321;BME280;49449;48.800;9.534;2023-04-07T00:14:41;98603.25;;;9.06;37.17
63321;BME280;49449;48.800;9.534;2023-04-07T00:17:09;98608.34;;;9.01;37.91
63321;BME280;49449;48.800;9.534;2023-04-07T00:19:37;98605.22;;;8.86;37.76
63321;BME280;49449;48.800;9.534;2023-04-07T00:22:06;98607.41;;;8.96;37.51
63321;BME280;49449;48.800;9.534;2023-04-07T00:24:33;98601.09;;;8.97;37.32
63321;BME280;49449;48.800;9.534;2023-04-07T00:27:01;98595.97;;;9.02;37.46
63321;BME280;49449;48.800;9.534;2023-04-07T00:29:29;98594.91;;;8.84;38.02
63321;BME280;49449;48.800;9.534;2023-04-07T00:31:57;98585.56;;;8.88;38.30
63321;BME280;49449;48.800;9.534;2023-04-07T00:34:24;98593.84;;;8.92;38.10
63321;BME280;49449;48.800;9.534;2023-04-07T00:36:52;98585.13;;;8.91;38.32
63321;BME280;49449;48.800;9.534;2023-04-07T00:39:21;98578.25;;;8.90;38.46
63321;BME280;49449;48.800;9.534;2023-04-07T00:41:49;98569.97;;;8.87;38.95
63321;BME280;49449;48.800;9.534;2023-04-07T00:44:17;98579.69;;;8.86;38.95
63321;BME280;49449;48.800;9.534;2023-04-07T00:46:46;98572.66;;;8.80;38.92
63321;BME280;49449;48.800;9.534;2023-04-07T00:49:14;98569.22;;;8.80;39.02
63321;BME280;49449;48.800;9.534;2023-04-07T00:51:43;98566.59;;;8.80;39.11
63321;BME280;49449;48.800;9.534;2023-04-07T00:54:12;98565.34;;;8.82;39.18
63321;BME280;49449;48.800;9.534;2023-04-07T00:56:41;98559.28;;;8.82;39.22
63321;BME280;49449;48.800;9.534;2023-04-07T00:59:09;98559.47;;;8.80;39.16
63321;BME280;49449;48.800;9.534;2023-04-07T01:01:42;98556.84;;;8.80;39.42
63321;BME280;49449;48.800;9.534;2023-04-07T01:04:13;98551.56;;;8.80;39.32
63321;BME280;49449;48.800;9.534;2023-04-07T01:06:47;98546.53;;;8.79;39.41
63321;BME280;49449;48.800;9.534;2023-04-07T01:09:18;98535.78;;;8.80;39.05
63321;BME280;49449;48.800;9.534;2023-04-07T01:11:54;98533.72;;;8.82;38.67
63321;BME280;49449;48.800;9.534;2023-04-07T01:14:28;98540.03;;;8.81;38.40
63321;BME280;49449;48.800;9.534;2023-04-07T01:17:00;98533.38;;;8.72;38.17
63321;BME280;49449;48.800;9.534;2023-04-07T01:19:34;98530.84;;;8.59;38.23
63321;BME280;49449;48.800;9.534;2023-04-07T01:22:07;98522.63;;;8.48;38.66
63321;BME280;49449;48.800;9.534;2023-04-07T01:25:25;98528.25;;;8.52;38.31
63321;BME280;49449;48.800;9.534;2023-04-07T01:28:08;98528.69;;;8.49;38.59
63321;BME280;49449;48.800;9.534;2023-04-07T01:30:42;98528.13;;;8.40;38.58
63321;BME280;49449;48.800;9.534;2023-04-07T01:33:12;98517.59;;;8.40;38.52
63321;BME280;49449;48.800;9.534;2023-04-07T01:35:41;98518.25;;;8.35;38.79
63321;BME280;49449;48.800;9.534;2023-04-07T01:38:10;98513.84;;;8.29;38.91
63321;BME280;49449;48.800;9.534;2023-04-07T01:40:39;98514.03;;;8.28;39.10
63321;BME280;49449;48.800;9.534;2023-04-07T01:43:08;98511.03;;;8.24;39.44
63321;BME280;49449;48.800;9.534;2023-04-07T01:45:36;98509.06;;;8.20;39.57
63321;BME280;49449;48.800;9.534;2023-04-07T01:48:07;98506.19;;;8.21;39.52
63321;BME280;49449;48.800;9.534;2023-04-07T01:50:35;98506.59;;;8.25;39.55
63321;BME280;49449;48.800;9.534;2023-04-07T01:53:04;98494.25;;;8.25;39.50
63321;BME280;49449;48.800;9.534;2023-04-07T01:55:33;98504.59;;;8.20;39.76
63321;BME280;49449;48.800;9.534;2023-04-07T01:58:03;98491.25;;;8.15;39.93
63321;BME280;49449;48.800;9.534;2023-04-07T02:00:31;98495.94;;;8.13;39.87
63321;BME280;49449;48.800;9.534;2023-04-07T02:03:03;98495.53;;;8.16;39.83
63321;BME280;49449;48.800;9.534;2023-04-07T02:05:35;98502.38;;;8.17;40.13
63321;BME280;49449;48.800;9.534;2023-04-07T02:08:07;98493.47;;;8.18;40.00
63321;BME280;49449;48.800;9.534;2023-04-07T02:10:36;98501.63;;;8.10;40.04
63321;BME280;49449;48.800;9.534;2023-04-07T02:13:06;98493.09;;;8.14;39.82
63321;BME280;49449;48.800;9.534;2023-04-07T02:15:35;98491.69;;;8.12;39.86
63321;BME280;49449;48.800;9.534;2023-04-07T02:18:05;98488.84;;;8.13;39.82
63321;BME280;49449;48.800;9.534;2023-04-07T02:20:37;98483.75;;;8.19;39.74
63321;BME280;49449;48.800;9.534;2023-04-07T02:23:06;98487.75;;;8.21;39.58
63321;BME280;49449;48.800;9.534;2023-04-07T02:25:34;98477.25;;;8.21;39.64
63321;BME280;49449;48.800;9.534;2023-04-07T02:28:04;98476.03;;;8.24;39.75
63321;BME280;49449;48.800;9.534;2023-04-07T02:30:32;98474.78;;;8.26;39.69
63321;BME280;49449;48.800;9.534;2023-04-07T02:33:00;98468.50;;;8.27;39.80
63321;BME280;49449;48.800;9.534;2023-04-07T02:35:28;98470.53;;;8.25;39.93
63321;BME280;49449;48.800;9.534;2023-04-07T02:37:57;98464.25;;;8.26;40.03
63321;BME280;49449;48.800;9.534;2023-04-07T02:40:25;98464.06;;;8.21;39.73
63321;BME280;49449;48.800;9.534;2023-04-07T02:42:53;98462.44;;;8.27;39.67
63321;BME280;49449;48.800;9.534;2023-04-07T02:45:20;98464.25;;;8.26;39.65
63321;BME280;49449;48.800;9.534;2023-04-07T02:47:48;98471.72;;;8.29;39.57
63321;BME280;49449;48.800;9.534;2023-04-07T02:50:16;98470.94;;;8.29;39.56
63321;BME280;49449;48.800;9.534;2023-04-07T02:52:44;98457.75;;;8.29;39.34
63321;BME280;49449;48.800;9.534;2023-04-07T02:55:13;98457.75;;;8.29;39.29
63321;BME280;49449;48.800;9.534;2023-04-07T02:57:41;98459.59;;;8.28;39.33
63321;BME280;49449;48.800;9.534;2023-04-07T03:00:09;98460.59;;;8.27;39.39
63321;BME280;49449;48.800;9.534;2023-04-07T03:02:40;98455.34;;;8.27;39.33
63321;BME280;49449;48.800;9.534;2023-04-07T03:05:08;98447.06;;;8.24;39.48
63321;BME280;49449;48.800;9.534;2023-04-07T03:07:36;98445.03;;;8.26;39.35
63321;BME280;49449;48.800;9.534;2023-04-07T03:10:04;98437.13;;;8.26;39.31
63321;BME280;49449;48.800;9.534;2023-04-07T03:12:33;98450.50;;;8.24;39.43
63321;BME280;49449;48.800;9.534;2023-04-07T03:15:01;98439.97;;;8.24;39.56
63321;BME280;49449;48.800;9.534;2023-04-07T03:17:29;98441.44;;;8.20;39.59
63321;BME280;49449;48.800;9.534;2023-04-07T03:19:57;98435.56;;;8.18;39.60
63321;BME280;49449;48.800;9.534;2023-04-07T03:22:24;98436.16;;;8.20;39.77
63321;BME280;49449;48.800;9.534;2023-04-07T03:24:52;98431.69;;;8.21;39.83
63321;BME280;49449;48.800;9.534;2023-04-07T03:27:20;98426.44;;;8.21;39.81
63321;BME280;49449;48.800;9.534;2023-04-07T03:29:49;98431.13;;;8.19;39.65
63321;BME280;49449;48.800;9.534;2023-04-07T03:32:17;98429.28;;;8.19;39.77
63321;BME280;49449;48.800;9.534;2023-04-07T03:34:45;98430.91;;;8.20;39.71
63321;BME280;49449;48.800;9.534;2023-04-07T03:37:12;98434.34;;;8.21;39.78
63321;BME280;49449;48.800;9.534;2023-04-07T03:39:41;98419.13;;;8.23;39.82
63321;BME280;49449;48.800;9.534;2023-04-07T03:42:08;98435.13;;;8.21;39.96
63321;BME280;49449;48.800;9.534;2023-04-07T03:44:36;98421.97;;;8.21;40.06
63321;BME280;49449;48.800;9.534;2023-04-07T03:47:05;98425.44;;;8.22;40.34
63321;BME280;49449;48.800;9.534;2023-04-07T03:49:33;98424.00;;;8.19;40.47
63321;BME280;49449;48.800;9.534;2023-04-07T03:52:03;98427.84;;;8.23;40.68
63321;BME280;49449;48.800;9.534;2023-04-07T03:54:31;98423.59;;;8.22;40.52
63321;BME280;49449;48.800;9.534;2023-04-07T03:57:01;98427.31;;;8.14;40.66
63321;BME280;49449;48.800;9.534;2023-04-07T03:59:29;98427.31;;;8.14;40.58
63321;BME280;49449;48.800;9.534;2023-04-07T04:01:56;98431.00;;;8.07;40.73
63321;BME280;49449;48.800;9.534;2023-04-07T04:04:26;98432.81;;;8.06;40.84
63321;BME280;49449;48.800;9.534;2023-04-07T04:06:53;98424.28;;;8.11;41.03
63321;BME280;49449;48.800;9.534;2023-04-07T04:09:21;98415.94;;;8.14;41.00
63321;BME280;49449;48.800;9.534;2023-04-07T04:11:49;98418.38;;;8.15;41.03
63321;BME280;49449;48.800;9.534;2023-04-07T04:14:17;98413.69;;;8.17;41.18
63321;BME280;49449;48.800;9.534;2023-04-07T04:16:44;98410.84;;;8.19;41.28
63321;BME280;49449;48.800;9.534;2023-04-07T04:19:12;98400.31;;;8.19;41.30
63321;BME280;49449;48.800;9.534;2023-04-07T04:21:41;98408.22;;;8.19;41.12
63321;BME280;49449;48.800;9.534;2023-04-07T04:24:09;98405.38;;;8.21;41.25
63321;BME280;49449;48.800;9.534;2023-04-07T04:26:37;98407.00;;;8.22;41.02
63321;BME280;49449;48.800;9.534;2023-04-07T04:29:05;98409.47;;;8.16;41.01
63321;BME280;49449;48.800;9.534;2023-04-07T04:31:32;98409.69;;;8.15;40.93
63321;BME280;49449;48.800;9.534;2023-04-07T04:34:00;98411.94;;;8.11;40.97
63321;BME280;49449;48.800;9.534;2023-04-07T04:36:28;98409.09;;;8.13;41.09
63321;BME280;49449;48.800;9.534;2023-04-07T04:38:57;98415.00;;;8.08;41.03
63321;BME280;49449;48.800;9.534;2023-04-07T04:41:25;98410.38;;;8.04;41.21
63321;BME280;49449;48.800;9.534;2023-04-07T04:43:53;98402.91;;;8.01;41.48
63321;BME280;49449;48.800;9.534;2023-04-07T04:46:21;98410.81;;;8.01;41.23
63321;BME280;49449;48.800;9.534;2023-04-07T04:48:48;98416.28;;;7.99;41.85
63321;BME280;49449;48.800;9.534;2023-04-07T04:51:17;98411.84;;;7.93;41.72
63321;BME280;49449;48.800;9.534;2023-04-07T04:53:45;98410.84;;;7.94;41.89
63321;BME280;49449;48.800;9.534;2023-04-07T04:56:14;98410.63;;;7.95;41.85
63321;BME280;49449;48.800;9.534;2023-04-07T04:58:42;98407.00;;;7.96;42.08
63321;BME280;49449;48.800;9.534;2023-04-07T05:01:11;98413.66;;;7.99;41.92
63321;BME280;49449;48.800;9.534;2023-04-07T05:03:39;98406.56;;;8.00;41.68
63321;BME280;49449;48.800;9.534;2023-04-07T05:06:07;98405.75;;;7.99;41.90
63321;BME280;49449;48.800;9.534;2023-04-07T05:08:35;98409.19;;;8.00;41.81
63321;BME280;49449;48.800;9.534;2023-04-07T05:11:03;98405.53;;;8.01;41.56
63321;BME280;49449;48.800;9.534;2023-04-07T05:13:32;98405.53;;;8.01;41.86
63321;BME280;49449;48.800;9.534;2023-04-07T05:15:59;98403.16;;;7.92;41.82
63321;BME280;49449;48.800;9.534;2023-04-07T05:18:27;98398.28;;;7.96;42.27
63321;BME280;49449;48.800;9.534;2023-04-07T05:20:55;98402.31;;;7.98;42.11
63321;BME280;49449;48.800;9.534;2023-04-07T05:23:23;98396.03;;;8.00;41.92
63321;BME280;49449;48.800;9.534;2023-04-07T05:25:51;98402.69;;;8.02;41.76
63321;BME280;49449;48.800;9.534;2023-04-07T05:28:18;98391.72;;;8.05;41.80
63321;BME280;49449;48.800;9.534;2023-04-07T05:30:48;98399.25;;;8.02;41.94
63321;BME280;49449;48.800;9.534;2023-04-07T05:33:16;98405.53;;;8.01;42.06
63321;BME280;49449;48.800;9.534;2023-04-07T05:35:43;98406.13;;;8.03;41.93
63321;BME280;49449;48.800;9.534;2023-04-07T05:38:12;98407.38;;;8.00;42.03
63321;BME280;49449;48.800;9.534;2023-04-07T05:40:40;98411.41;;;8.03;42.00
63321;BME280;49449;48.800;9.534;2023-04-07T05:43:07;98408.34;;;8.06;41.83
63321;BME280;49449;48.800;9.534;2023-04-07T05:45:35;98407.31;;;8.07;41.79
63321;BME280;49449;48.800;9.534;2023-04-07T05:48:04;98410.56;;;8.09;41.88
63321;BME280;49449;48.800;9.534;2023-04-07T05:50:32;98410.75;;;8.07;42.17
63321;BME280;49449;48.800;9.534;2023-04-07T05:53:00;98416.63;;;8.09;42.00
63321;BME280;49449;48.800;9.534;2023-04-07T05:55:28;98418.66;;;8.07;42.21
63321;BME280;49449;48.800;9.534;2023-04-07T05:57:56;98412.34;;;8.08;42.12
63321;BME280;49449;48.800;9.534;2023-04-07T06:00:24;98418.44;;;8.09;41.95
63321;BME280;49449;48.800;9.534;2023-04-07T06:02:53;98416.41;;;8.11;42.11
63321;BME280;49449;48.800;9.534;2023-04-07T06:05:22;98423.47;;;8.10;42.29
63321;BME280;49449;48.800;9.534;2023-04-07T06:07:49;98422.66;;;8.10;42.37
63321;BME280;49449;48.800;9.534;2023-04-07T06:10:17;98416.81;;;8.08;42.42
63321;BME280;49449;48.800;9.534;2023-04-07T06:12:45;98420.25;;;8.08;42.43
63321;BME280;49449;48.800;9.534;2023-04-07T06:15:13;98424.09;;;8.12;41.99
63321;BME280;49449;48.800;9.534;2023-04-07T06:17:41;98418.22;;;8.10;42.19
63321;BME280;49449;48.800;9.534;2023-04-07T06:20:11;98423.84;;;8.14;42.14
63321;BME280;49449;48.800;9.534;2023-04-07T06:22:40;98424.88;;;8.13;42.19
63321;BME280;49449;48.800;9.534;2023-04-07T06:25:08;98425.47;;;8.15;42.21
63321;BME280;49449;48.800;9.534;2023-04-07T06:27:36;98415.53;;;8.17;42.24
63321;BME280;49449;48.800;9.534;2023-04-07T06:30:05;98421.16;;;8.21;42.25
63321;BME280;49449;48.800;9.534;2023-04-07T06:32:33;98418.91;;;8.24;42.34
63321;BME280;49449;48.800;9.534;2023-04-07T06:35:01;98417.91;;;8.25;42.28
63321;BME280;49449;48.800;9.534;2023-04-07T06:37:29;98412.44;;;8.27;42.38
63321;BME280;49449;48.800;9.534;2023-04-07T06:39:58;98415.06;;;8.27;42.16
63321;BME280;49449;48.800;9.534;2023-04-07T06:42:26;98419.09;;;8.29;42.00
63321;BME280;49449;48.800;9.534;2023-04-07T06:44:53;98408.94;;;8.33;42.12
63321;BME280;49449;48.800;9.534;2023-04-07T06:47:21;98412.50;;;8.39;41.92
63321;BME280;49449;48.800;9.534;2023-04-07T06:49:49;98412.09;;;8.42;42.16
63321;BME280;49449;48.800;9.534;2023-04-07T06:52:17;98415.09;;;8.45;42.27
63321;BME280;49449;48.800;9.534;2023-04-07T06:54:45;98410.88;;;8.44;42.23
63321;BME280;49449;48.800;9.534;2023-04-07T06:57:14;98412.84;;;8.49;42.08
63321;BME280;49449;48.800;9.534;2023-04-07T06:59:42;98408.53;;;8.54;42.05
63321;BME280;49449;48.800;9.534;2023-04-07T07:02:10;98408.09;;;8.58;42.78
63321;BME280;49449;48.800;9.534;2023-04-07T07:04:38;98406.13;;;8.53;42.36
63321;BME280;49449;48.800;9.534;2023-04-07T07:07:06;98414.66;;;8.48;42.66
63321;BME280;49449;48.800;9.534;2023-04-07T07:09:33;98416.06;;;8.51;42.76
63321;BME280;49449;48.800;9.534;2023-04-07T07:12:01;98409.19;;;8.50;42.16
63321;BME280;49449;48.800;9.534;2023-04-07T07:14:31;98407.94;;;8.52;42.37
63321;BME280;49449;48.800;9.534;2023-04-07T07:16:58;98414.16;;;8.58;42.51
63321;BME280;49449;48.800;9.534;2023-04-07T07:19:26;98412.13;;;8.60;42.48
63321;BME280;49449;48.800;9.534;2023-04-07T07:21:54;98407.72;;;8.54;42.52
63321;BME280;49449;48.800;9.534;2023-04-07T07:24:22;98417.16;;;8.62;42.41
63321;BME280;49449;48.800;9.534;2023-04-07T07:26:49;98418.16;;;8.67;42.50
63321;BME280;49449;48.800;9.534;2023-04-07T07:29:17;98408.16;;;8.76;42.50
63321;BME280;49449;48.800;9.534;2023-04-07T07:31:46;98413.84;;;8.91;42.51
63321;BME280;49449;48.800;9.534;2023-04-07T07:34:14;98410.06;;;9.06;42.00
63321;BME280;49449;48.800;9.534;2023-04-07T07:36:42;98409.38;;;9.29;41.71
63321;BME280;49449;48.800;9.534;2023-04-07T07:39:10;98397.44;;;9.57;41.33
63321;BME280;49449;48.800;9.534;2023-04-07T07:41:37;98399.91;;;9.70;40.88
63321;BME280;49449;48.800;9.534;2023-04-07T07:44:05;98400.03;;;9.75;41.04
63321;BME280;49449;48.800;9.534;2023-04-07T07:46:33;98406.78;;;10.01;41.11
63321;BME280;49449;48.800;9.534;2023-04-07T07:49:02;98403.56;;;10.11;40.12
63321;BME280;49449;48.800;9.534;2023-04-07T07:51:31;98400.34;;;9.97;40.04
63321;BME280;49449;48.800;9.534;2023-04-07T07:53:59;98399.91;;;10.12;39.89
63321;BME280;49449;48.800;9.534;2023-04-07T07:56:27;98397.63;;;10.28;39.93
63321;BME280;49449;48.800;9.534;2023-04-07T07:58:55;98404.97;;;10.37;39.53
63321;BME280;49449;48.800;9.534;2023-04-07T08:01:23;98413.03;;;10.42;39.22
63321;BME280;49449;48.800;9.534;2023-04-07T08:03:51;98408.31;;;10.56;39.36
63321;BME280;49449;48.800;9.534;2023-04-07T08:06:20;98411.88;;;10.74;39.13
63321;BME280;49449;48.800;9.534;2023-04-07T08:08:48;98410.03;;;10.74;38.75
63321;BME280;49449;48.800;9.534;2023-04-07T08:11:16;98415.19;;;10.81;39.84
63321;BME280;49449;48.800;9.534;2023-04-07T08:13:44;98415.34;;;10.86;40.37
63321;BME280;49449;48.800;9.534;2023-04-07T08:16:12;98417.94;;;10.98;40.02
63321;BME280;49449;48.800;9.534;2023-04-07T08:18:39;98411.13;;;11.14;39.36
63321;BME280;49449;48.800;9.534;2023-04-07T08:21:07;98415.78;;;11.35;39.09
63321;BME280;49449;48.800;9.534;2023-04-07T08:23:36;98410.75;;;11.51;38.60
63321;BME280;49449;48.800;9.534;2023-04-07T08:26:04;98412.50;;;11.74;38.45
63321;BME280;49449;48.800;9.534;2023-04-07T08:28:32;98403.69;;;11.97;37.80
63321;BME280;49449;48.800;9.534;2023-04-07T08:30:59;98408.56;;;12.05;37.42
63321;BME280;49449;48.800;9.534;2023-04-07T08:33:27;98403.66;;;12.14;37.36
63321;BME280;49449;48.800;9.534;2023-04-07T08:35:55;98410.41;;;12.22;37.15
63321;BME280;49449;48.800;9.534;2023-04-07T08:38:23;98401.56;;;12.33;37.20
63321;BME280;49449;48.800;9.534;2023-04-07T08:41:01;98402.28;;;12.45;36.93
63321;BME280;49449;48.800;9.534;2023-04-07T08:43:29;98405.69;;;12.80;36.34
63321;BME280;49449;48.800;9.534;2023-04-07T08:45:58;98406.81;;;13.06;35.42
63321;BME280;49449;48.800;9.534;2023-04-07T08:48:29;98405.09;;;13.17;35.49
63321;BME280;49449;48.800;9.534;2023-04-07T08:51:04;98408.84;;;13.43;34.64
63321;BME280;49449;48.800;9.534;2023-04-07T08:53:36;98408.75;;;13.60;34.42
63321;BME280;49449;48.800;9.534;2023-04-07T08:56:09;98414.78;;;13.77;33.02
63321;BME280;49449;48.800;9.534;2023-04-07T08:58:38;98411.59;;;13.80;31.84
63321;BME280;49449;48.800;9.534;2023-04-07T09:01:07;98410.03;;;13.79;30.01
63321;BME280;49449;48.800;9.534;2023-04-07T09:03:35;98404.91;;;13.73;31.72
63321;BME280;49449;48.800;9.534;2023-04-07T09:06:04;98413.59;;;13.63;30.82
63321;BME280;49449;48.800;9.534;2023-04-07T09:08:32;98414.69;;;13.45;31.43
63321;BME280;49449;48.800;9.534;2023-04-07T09:11:00;98425.16;;;13.30;31.50
63321;BME280;49449;48.800;9.534;2023-04-07T09:13:30;98421.53;;;13.14;31.69
63321;BME280;49449;48.800;9.534;2023-04-07T09:16:00;98418.16;;;13.23;32.71
63321;BME280;49449;48.800;9.534;2023-04-07T09:18:28;98417.06;;;13.19;32.52
63321;BME280;49449;48.800;9.534;2023-04-07T09:20:57;98430.19;;;13.09;32.81
63321;BME280;49449;48.800;9.534;2023-04-07T09:23:33;98420.84;;;13.01;32.44
63321;BME280;49449;48.800;9.534;2023-04-07T09:26:18;98428.81;;;12.84;32.23
63321;BME280;49449;48.800;9.534;2023-04-07T09:28:48;98423.91;;;12.93;32.47
63321;BME280;49449;48.800;9.534;2023-04-07T09:31:17;98421.56;;;12.97;32.12
63321;BME280;49449;48.800;9.534;2023-04-07T09:33:44;98423.50;;;13.01;32.34
63321;BME280;49449;48.800;9.534;2023-04-07T09:36:12;98424.53;;;13.00;32.97
63321;BME280;49449;48.800;9.534;2023-04-07T09:38:42;98425.38;;;13.06;33.10
63321;BME280;49449;48.800;9.534;2023-04-07T09:41:11;98428.09;;;13.11;32.78
63321;BME280;49449;48.800;9.534;2023-04-07T09:43:41;98425.94;;;13.08;32.15
63321;BME280;49449;48.800;9.534;2023-04-07T09:46:12;98424.91;;;13.09;31.94
63321;BME280;49449;48.800;9.534;2023-04-07T09:48:42;98415.25;;;12.81;31.70
63321;BME280;49449;48.800;9.534;2023-04-07T09:51:11;98422.13;;;12.77;32.12
63321;BME280;49449;48.800;9.534;2023-04-07T09:53:44;98422.41;;;12.80;33.03
63321;BME280;49449;48.800;9.534;2023-04-07T09:56:13;98435.38;;;12.77;32.19
63321;BME280;49449;48.800;9.534;2023-04-07T09:58:44;98425.56;;;12.77;31.79
63321;BME280;49449;48.800;9.534;2023-04-07T10:01:15;98426.34;;;12.78;32.04
63321;BME280;49449;48.800;9.534;2023-04-07T10:03:44;98429.06;;;12.83;32.00
63321;BME280;49449;48.800;9.534;2023-04-07T10:06:12;98422.81;;;12.89;31.77
63321;BME280;49449;48.800;9.534;2023-04-07T10:08:43;98424.47;;;12.95;32.90
63321;BME280;49449;48.800;9.534;2023-04-07T10:11:10;98433.72;;;12.93;32.03
63321;BME280;49449;48.800;9.534;2023-04-07T10:13:39;98430.84;;;12.77;32.12
63321;BME280;49449;48.800;9.534;2023-04-07T10:16:07;98434.63;;;12.81;32.85
63321;BME280;49449;48.800;9.534;2023-04-07T10:18:37;98427.84;;;12.91;31.86
63321;BME280;49449;48.800;9.534;2023-04-07T10:21:06;98426.66;;;12.81;33.40
63321;BME280;49449;48.800;9.534;2023-04-07T10:23:46;98418.84;;;12.92;32.44
63321;BME280;49449;48.800;9.534;2023-04-07T10:26:15;98428.19;;;12.94;32.73
63321;BME280;49449;48.800;9.534;2023-04-07T10:28:48;98424.78;;;12.99;32.95
63321;BME280;49449;48.800;9.534;2023-04-07T10:31:17;98424.91;;;13.09;32.60
63321;BME280;49449;48.800;9.534;2023-04-07T10:33:49;98422.56;;;13.13;32.55
63321;BME280;49449;48.800;9.534;2023-04-07T10:36:18;98427.06;;;13.12;32.99
63321;BME280;49449;48.800;9.534;2023-04-07T10:39:20;98431.38;;;13.18;32.27
63321;BME280;49449;48.800;9.534;2023-04-07T10:41:48;98422.13;;;13.21;31.90
63321;BME280;49449;48.800;9.534;2023-04-07T10:47:26;98422.78;;;13.11;32.37
63321;BME280;49449;48.800;9.534;2023-04-07T10:50:14;98423.41;;;13.18;32.05
63321;BME280;49449;48.800;9.534;2023-04-07T10:52:43;98420.69;;;13.13;31.13
63321;BME280;49449;48.800;9.534;2023-04-07T10:55:29;98424.91;;;13.09;31.28
63321;BME280;49449;48.800;9.534;2023-04-07T10:58:21;98421.16;;;13.05;31.26
63321;BME280;49449;48.800;9.534;2023-04-07T11:01:15;98425.53;;;12.94;32.28
63321;BME280;49449;48.800;9.534;2023-04-07T11:03:58;98422.53;;;12.91;32.97
63321;BME280;49449;48.800;9.534;2023-04-07T11:06:28;98420.31;;;12.82;31.68
63321;BME280;49449;48.800;9.534;2023-04-07T11:08:56;98425.00;;;12.75;32.50
63321;BME280;49449;48.800;9.534;2023-04-07T11:11:36;98422.50;;;12.85;32.80
63321;BME280;49449;48.800;9.534;2023-04-07T11:14:04;98417.66;;;12.82;32.76
63321;BME280;49449;48.800;9.534;2023-04-07T11:16:38;98413.22;;;12.88;32.04
63321;BME280;49449;48.800;9.534;2023-04-07T11:19:07;98422.59;;;12.96;32.31
63321;BME280;49449;48.800;9.534;2023-04-07T11:21:36;98414.94;;;12.99;31.91
63321;BME280;49449;48.800;9.534;2023-04-07T11:24:04;98421.69;;;13.07;31.53
63321;BME280;49449;48.800;9.534;2023-04-07T11:26:38;98421.47;;;13.08;31.11
63321;BME280;49449;48.800;9.534;2023-04-07T11:29:07;98412.69;;;13.08;30.48
63321;BME280;49449;48.800;9.534;2023-04-07T11:31:35;98415.78;;;13.00;30.64
63321;BME280;49449;48.800;9.534;2023-04-07T11:34:04;98418.50;;;13.05;31.02
63321;BME280;49449;48.800;9.534;2023-04-07T11:36:33;98408.69;;;13.05;31.85
63321;BME280;49449;48.800;9.534;2023-04-07T11:39:02;98417.97;;;13.08;31.24
63321;BME280;49449;48.800;9.534;2023-04-07T11:41:31;98418.34;;;13.17;32.02
63321;BME280;49449;48.800;9.534;2023-04-07T11:44:04;98418.09;;;13.18;32.03
63321;BME280;49449;48.800;9.534;2023-04-07T11:46:33;98420.88;;;13.29;30.55
63321;BME280;49449;48.800;9.534;2023-04-07T11:49:11;98412.69;;;13.30;30.12
63321;BME280;49449;48.800;9.534;2023-04-07T11:51:41;98411.38;;;13.33;29.91
63321;BME280;49449;48.800;9.534;2023-04-07T11:54:11;98408.78;;;13.38;29.60
63321;BME280;49449;48.800;9.534;2023-04-07T11:56:43;98412.19;;;13.33;29.11
63321;BME280;49449;48.800;9.534;2023-04-07T11:59:19;98412.81;;;13.40;30.46
63321;BME280;49449;48.800;9.534;2023-04-07T12:01:49;98411.84;;;13.52;31.35
63321;BME280;49449;48.800;9.534;2023-04-07T12:04:18;98412.78;;;13.62;31.64
63321;BME280;49449;48.800;9.534;2023-04-07T12:06:47;98412.03;;;13.67;30.64
63321;BME280;49449;48.800;9.534;2023-04-07T12:09:27;98415.19;;;13.64;30.25
63321;BME280;49449;48.800;9.534;2023-04-07T12:11:56;98415.03;;;13.54;30.82
63321;BME280;49449;48.800;9.534;2023-04-07T12:14:24;98412.78;;;13.62;31.03
63321;BME280;49449;48.800;9.534;2023-04-07T12:16:53;98416.31;;;13.73;30.77
63321;BME280;49449;48.800;9.534;2023-04-07T12:19:24;98412.59;;;13.69;30.04
63321;BME280;49449;48.800;9.534;2023-04-07T12:21:53;98414.94;;;13.66;29.70
63321;BME280;49449;48.800;9.534;2023-04-07T12:24:20;98418.69;;;13.70;29.61
63321;BME280;49449;48.800;9.534;2023-04-07T12:26:50;98422.22;;;13.80;29.72
63321;BME280;49449;48.800;9.534;2023-04-07T12:29:18;98416.38;;;13.78;29.36
63321;BME280;49449;48.800;9.534;2023-04-07T12:31:46;98411.13;;;13.83;29.78
63321;BME280;49449;48.800;9.534;2023-04-07T12:34:15;98420.91;;;13.78;29.21
63321;BME280;49449;48.800;9.534;2023-04-07T12:36:43;98414.44;;;13.69;29.82
63321;BME280;49449;48.800;9.534;2023-04-07T12:39:11;98418.09;;;13.62;29.79
63321;BME280;49449;48.800;9.534;2023-04-07T12:41:39;98417.63;;;13.49;30.32
63321;BME280;49449;48.800;9.534;2023-04-07T12:44:08;98419.06;;;13.56;30.67
63321;BME280;49449;48.800;9.534;2023-04-07T12:46:36;98418.69;;;13.70;31.27
63321;BME280;49449;48.800;9.534;2023-04-07T12:49:04;98420.41;;;13.81;30.97
63321;BME280;49449;48.800;9.534;2023-04-07T12:51:32;98420.16;;;13.88;30.18
63321;BME280;49449;48.800;9.534;2023-04-07T12:54:00;98411.16;;;13.89;29.94
63321;BME280;49449;48.800;9.534;2023-04-07T12:56:29;98414.06;;;13.87;29.85
63321;BME280;49449;48.800;9.534;2023-04-07T12:58:56;98417.50;;;13.88;30.36
63321;BME280;49449;48.800;9.534;2023-04-07T13:01:26;98415.44;;;13.90;30.68
63321;BME280;49449;48.800;9.534;2023-04-07T13:03:54;98406.09;;;13.87;30.24
63321;BME280;49449;48.800;9.534;2023-04-07T13:06:21;98415.69;;;13.88;29.84
63321;BME280;49449;48.800;9.534;2023-04-07T13:08:49;98410.91;;;13.90;29.93
63321;BME280;49449;48.800;9.534;2023-04-07T13:11:17;98411.47;;;13.92;30.03
63321;BME280;49449;48.800;9.534;2023-04-07T13:13:45;98405.41;;;13.97;30.52
63321;BME280;49449;48.800;9.534;2023-04-07T13:16:13;98402.50;;;13.98;29.86
63321;BME280;49449;48.800;9.534;2023-04-07T13:18:42;98400.13;;;14.02;29.61
63321;BME280;49449;48.800;9.534;2023-04-07T13:21:10;98393.72;;;13.98;30.36
63321;BME280;49449;48.800;9.534;2023-04-07T13:23:57;98405.50;;;14.07;29.42